Terminal Aerodrome Forecast
Issued by NWS Northern Indiana

Home | Current Version | Previous Version | Text Only | Print | Product List | Glossary On
Versions: 1 2 3 4 5 6 7 8 9 10 11 12 13 14 15 16 17 18 19 20 21 22
000
FTUS43 KIWX 220500
TAFFWA
TAF
KFWA 220530Z 2206/2306 20004KT P6SM BKN100
     FM220800 19004KT 4SM -SHRA BR SCT025 BKN050
      TEMPO 2208/2211 2SM TSRA BR BKN025CB OVC050
     FM221200 23003KT 4SM BR BKN035
     FM221400 24006KT P6SM BKN050=

USA.gov is the U.S. government's official web portal to all federal, state and local government web resources and services.